sensor_id;sensor_type;location;lat;lon;timestamp;P1;durP1;ratioP1;P2;durP2;ratioP2
466;SDS011;72290;48.808;9.222;2023-09-19T06:02:40;6.10;;;2.63;;
466;SDS011;72290;48.808;9.222;2023-09-19T06:05:06;5.53;;;2.97;;
466;SDS011;72290;48.808;9.222;2023-09-19T06:07:35;4.10;;;2.57;;
466;SDS011;72290;48.808;9.222;2023-09-19T06:10:04;2.93;;;2.27;;
466;SDS011;72290;48.808;9.222;2023-09-19T06:12:33;5.23;;;2.57;;
466;SDS011;72290;48.808;9.222;2023-09-19T06:15:00;2.57;;;2.43;;
466;SDS011;72290;48.808;9.222;2023-09-19T06:17:26;5.13;;;3.10;;
466;SDS011;72290;48.808;9.222;2023-09-19T06:19:52;3.90;;;2.80;;
466;SDS011;72290;48.808;9.222;2023-09-19T06:22:19;4.97;;;2.80;;
466;SDS011;72290;48.808;9.222;2023-09-19T06:24:45;2.93;;;2.30;;
466;SDS011;72290;48.808;9.222;2023-09-19T06:27:12;9.23;;;3.03;;
466;SDS011;72290;48.808;9.222;2023-09-19T06:29:38;7.57;;;3.07;;
466;SDS011;72290;48.808;9.222;2023-09-19T06:32:07;6.77;;;3.83;;
466;SDS011;72290;48.808;9.222;2023-09-19T06:34:36;10.63;;;4.00;;
466;SDS011;72290;48.808;9.222;2023-09-19T06:37:04;3.97;;;3.40;;
466;SDS011;72290;48.808;9.222;2023-09-19T06:39:31;5.67;;;3.20;;
466;SDS011;72290;48.808;9.222;2023-09-19T06:41:57;5.50;;;3.03;;
466;SDS011;72290;48.808;9.222;2023-09-19T06:44:25;11.03;;;3.33;;
466;SDS011;72290;48.808;9.222;2023-09-19T06:46:51;5.70;;;3.30;;
466;SDS011;72290;48.808;9.222;2023-09-19T06:49:17;4.07;;;3.03;;
466;SDS011;72290;48.808;9.222;2023-09-19T06:51:43;5.87;;;3.80;;
466;SDS011;72290;48.808;9.222;2023-09-19T06:54:12;8.97;;;3.70;;
466;SDS011;72290;48.808;9.222;2023-09-19T06:56:38;5.77;;;3.07;;
466;SDS011;72290;48.808;9.222;2023-09-19T06:59:04;5.17;;;3.00;;
466;SDS011;72290;48.808;9.222;2023-09-19T07:01:32;6.50;;;2.77;;
466;SDS011;72290;48.808;9.222;2023-09-19T07:03:58;11.10;;;2.93;;
466;SDS011;72290;48.808;9.222;2023-09-19T07:06:24;4.90;;;2.50;;
466;SDS011;72290;48.808;9.222;2023-09-19T07:08:50;4.70;;;2.77;;
466;SDS011;72290;48.808;9.222;2023-09-19T07:11:16;6.80;;;2.70;;
466;SDS011;72290;48.808;9.222;2023-09-19T07:13:42;4.17;;;3.00;;
466;SDS011;72290;48.808;9.222;2023-09-19T07:16:08;10.53;;;2.70;;
466;SDS011;72290;48.808;9.222;2023-09-19T07:18:52;4.50;;;2.30;;
466;SDS011;72290;48.808;9.222;2023-09-19T07:21:18;7.60;;;3.10;;
466;SDS011;72290;48.808;9.222;2023-09-19T07:23:43;3.20;;;2.40;;
466;SDS011;72290;48.808;9.222;2023-09-19T07:26:09;8.40;;;3.00;;
466;SDS011;72290;48.808;9.222;2023-09-19T07:28:35;4.97;;;2.50;;
466;SDS011;72290;48.808;9.222;2023-09-19T07:31:02;4.60;;;3.60;;
466;SDS011;72290;48.808;9.222;2023-09-19T07:33:34;8.60;;;2.67;;
466;SDS011;72290;48.808;9.222;2023-09-19T07:36:01;7.50;;;2.87;;
466;SDS011;72290;48.808;9.222;2023-09-19T07:38:27;11.70;;;2.80;;
466;SDS011;72290;48.808;9.222;2023-09-19T07:40:53;5.80;;;2.63;;
466;SDS011;72290;48.808;9.222;2023-09-19T07:43:20;11.17;;;2.70;;
466;SDS011;72290;48.808;9.222;2023-09-19T07:45:46;3.00;;;2.20;;
466;SDS011;72290;48.808;9.222;2023-09-19T07:48:13;7.73;;;4.67;;
466;SDS011;72290;48.808;9.222;2023-09-19T07:50:40;6.27;;;2.60;;
466;SDS011;72290;48.808;9.222;2023-09-19T07:53:08;7.93;;;3.60;;
466;SDS011;72290;48.808;9.222;2023-09-19T07:55:34;4.57;;;2.30;;
466;SDS011;72290;48.808;9.222;2023-09-19T07:58:00;2.07;;;1.60;;
466;SDS011;72290;48.808;9.222;2023-09-19T08:00:28;3.70;;;1.97;;
466;SDS011;72290;48.808;9.222;2023-09-19T08:02:54;3.50;;;2.03;;
466;SDS011;72290;48.808;9.222;2023-09-19T08:05:20;5.00;;;2.10;;
466;SDS011;72290;48.808;9.222;2023-09-19T08:07:47;4.57;;;2.97;;
466;SDS011;72290;48.808;9.222;2023-09-19T08:10:13;3.87;;;2.20;;
466;SDS011;72290;48.808;9.222;2023-09-19T08:12:43;4.00;;;2.20;;
466;SDS011;72290;48.808;9.222;2023-09-19T08:17:39;4.70;;;1.90;;
466;SDS011;72290;48.808;9.222;2023-09-19T08:20:05;4.90;;;2.23;;
466;SDS011;72290;48.808;9.222;2023-09-19T08:22:32;4.00;;;2.20;;
466;SDS011;72290;48.808;9.222;2023-09-19T08:24:58;4.60;;;2.20;;
466;SDS011;72290;48.808;9.222;2023-09-19T08:27:24;3.07;;;1.90;;
466;SDS011;72290;48.808;9.222;2023-09-19T08:29:53;5.30;;;2.50;;
466;SDS011;72290;48.808;9.222;2023-09-19T08:32:19;6.53;;;2.50;;
466;SDS011;72290;48.808;9.222;2023-09-19T08:34:49;3.83;;;2.00;;
466;SDS011;72290;48.808;9.222;2023-09-19T08:37:15;4.40;;;2.07;;
466;SDS011;72290;48.808;9.222;2023-09-19T08:39:43;5.90;;;2.27;;
466;SDS011;72290;48.808;9.222;2023-09-19T08:42:09;4.00;;;2.40;;
466;SDS011;72290;48.808;9.222;2023-09-19T08:44:37;3.53;;;1.97;;
466;SDS011;72290;48.808;9.222;2023-09-19T08:47:09;8.03;;;4.07;;
466;SDS011;72290;48.808;9.222;2023-09-19T08:52:27;2.03;;;1.73;;
466;SDS011;72290;48.808;9.222;2023-09-19T08:54:55;9.63;;;2.40;;
466;SDS011;72290;48.808;9.222;2023-09-19T08:57:27;3.63;;;1.70;;
466;SDS011;72290;48.808;9.222;2023-09-19T08:59:54;2.20;;;1.60;;
466;SDS011;72290;48.808;9.222;2023-09-19T09:02:21;1.97;;;1.40;;
466;SDS011;72290;48.808;9.222;2023-09-19T09:04:48;4.23;;;1.97;;
466;SDS011;72290;48.808;9.222;2023-09-19T09:07:15;4.23;;;1.80;;
466;SDS011;72290;48.808;9.222;2023-09-19T09:09:44;2.80;;;1.57;;
466;SDS011;72290;48.808;9.222;2023-09-19T09:12:13;4.57;;;1.90;;
466;SDS011;72290;48.808;9.222;2023-09-19T09:14:40;4.00;;;1.80;;
466;SDS011;72290;48.808;9.222;2023-09-19T09:17:06;4.53;;;2.20;;
466;SDS011;72290;48.808;9.222;2023-09-19T09:19:32;2.60;;;1.70;;
466;SDS011;72290;48.808;9.222;2023-09-19T09:22:11;4.63;;;1.70;;
466;SDS011;72290;48.808;9.222;2023-09-19T09:24:37;2.67;;;1.90;;
466;SDS011;72290;48.808;9.222;2023-09-19T09:27:05;5.10;;;2.00;;
466;SDS011;72290;48.808;9.222;2023-09-19T09:29:42;5.63;;;1.97;;
466;SDS011;72290;48.808;9.222;2023-09-19T09:34:51;5.10;;;2.13;;
466;SDS011;72290;48.808;9.222;2023-09-19T09:37:17;6.10;;;1.93;;
466;SDS011;72290;48.808;9.222;2023-09-19T09:40:00;8.07;;;2.20;;
466;SDS011;72290;48.808;9.222;2023-09-19T09:42:44;3.97;;;1.90;;
466;SDS011;72290;48.808;9.222;2023-09-19T09:45:21;5.80;;;2.03;;
466;SDS011;72290;48.808;9.222;2023-09-19T09:47:59;5.33;;;1.67;;
466;SDS011;72290;48.808;9.222;2023-09-19T09:50:35;3.63;;;1.80;;
466;SDS011;72290;48.808;9.222;2023-09-19T09:58:30;2.00;;;1.63;;
466;SDS011;72290;48.808;9.222;2023-09-19T10:00:57;4.30;;;2.10;;
466;SDS011;72290;48.808;9.222;2023-09-19T10:03:31;2.83;;;1.80;;
466;SDS011;72290;48.808;9.222;2023-09-19T10:05:59;3.37;;;1.83;;
466;SDS011;72290;48.808;9.222;2023-09-19T10:08:27;5.10;;;1.87;;
466;SDS011;72290;48.808;9.222;2023-09-19T10:10:56;2.80;;;1.57;;
466;SDS011;72290;48.808;9.222;2023-09-19T10:13:30;3.33;;;1.73;;
466;SDS011;72290;48.808;9.222;2023-09-19T10:15:58;3.90;;;2.03;;
466;SDS011;72290;48.808;9.222;2023-09-19T10:18:25;3.60;;;1.83;;
466;SDS011;72290;48.808;9.222;2023-09-19T10:20:52;4.00;;;2.20;;
466;SDS011;72290;48.808;9.222;2023-09-19T10:23:20;2.60;;;2.00;;
466;SDS011;72290;48.808;9.222;2023-09-19T10:25:50;2.83;;;1.50;;
466;SDS011;72290;48.808;9.222;2023-09-19T10:28:17;2.90;;;1.90;;
466;SDS011;72290;48.808;9.222;2023-09-19T10:30:47;4.23;;;2.10;;
466;SDS011;72290;48.808;9.222;2023-09-19T10:33:15;6.37;;;2.00;;
466;SDS011;72290;48.808;9.222;2023-09-19T10:35:42;4.63;;;2.23;;
466;SDS011;72290;48.808;9.222;2023-09-19T10:38:17;5.27;;;1.90;;
466;SDS011;72290;48.808;9.222;2023-09-19T10:40:49;4.07;;;1.73;;
466;SDS011;72290;48.808;9.222;2023-09-19T10:43:17;3.27;;;2.00;;
466;SDS011;72290;48.808;9.222;2023-09-19T10:45:43;2.53;;;2.00;;
466;SDS011;72290;48.808;9.222;2023-09-19T10:48:09;6.40;;;1.70;;
466;SDS011;72290;48.808;9.222;2023-09-19T10:50:41;5.17;;;1.83;;
466;SDS011;72290;48.808;9.222;2023-09-19T10:53:10;5.17;;;2.10;;
466;SDS011;72290;48.808;9.222;2023-09-19T10:55:37;2.50;;;1.80;;
466;SDS011;72290;48.808;9.222;2023-09-19T10:58:04;3.00;;;1.80;;
466;SDS011;72290;48.808;9.222;2023-09-19T11:03:18;2.37;;;1.43;;
466;SDS011;72290;48.808;9.222;2023-09-19T11:06:02;4.70;;;2.20;;
466;SDS011;72290;48.808;9.222;2023-09-19T11:08:57;2.90;;;1.43;;
466;SDS011;72290;48.808;9.222;2023-09-19T11:22:21;6.10;;;2.17;;
466;SDS011;72290;48.808;9.222;2023-09-19T11:24:47;2.20;;;1.60;;
466;SDS011;72290;48.808;9.222;2023-09-19T11:27:16;2.67;;;1.50;;
466;SDS011;72290;48.808;9.222;2023-09-19T11:29:43;3.23;;;1.73;;
466;SDS011;72290;48.808;9.222;2023-09-19T11:32:09;4.33;;;1.90;;
466;SDS011;72290;48.808;9.222;2023-09-19T11:34:41;5.20;;;1.90;;
466;SDS011;72290;48.808;9.222;2023-09-19T11:39:38;7.30;;;2.40;;
466;SDS011;72290;48.808;9.222;2023-09-19T11:44:53;4.50;;;1.60;;
466;SDS011;72290;48.808;9.222;2023-09-19T11:47:21;3.87;;;1.73;;
466;SDS011;72290;48.808;9.222;2023-09-19T11:49:49;5.13;;;1.57;;
466;SDS011;72290;48.808;9.222;2023-09-19T11:52:21;4.30;;;1.70;;
466;SDS011;72290;48.808;9.222;2023-09-19T11:54:54;4.77;;;1.57;;
466;SDS011;72290;48.808;9.222;2023-09-19T11:57:21;2.50;;;1.57;;
466;SDS011;72290;48.808;9.222;2023-09-19T11:59:48;2.53;;;1.60;;
466;SDS011;72290;48.808;9.222;2023-09-19T12:02:17;2.20;;;1.27;;
466;SDS011;72290;48.808;9.222;2023-09-19T12:04:46;2.67;;;1.53;;
466;SDS011;72290;48.808;9.222;2023-09-19T12:07:15;1.60;;;1.30;;
466;SDS011;72290;48.808;9.222;2023-09-19T12:09:51;8.67;;;3.43;;
466;SDS011;72290;48.808;9.222;2023-09-19T12:12:28;4.20;;;2.37;;
466;SDS011;72290;48.808;9.222;2023-09-19T12:14:55;3.17;;;1.40;;
466;SDS011;72290;48.808;9.222;2023-09-19T12:17:36;9.13;;;2.30;;
466;SDS011;72290;48.808;9.222;2023-09-19T12:20:04;3.83;;;1.77;;
466;SDS011;72290;48.808;9.222;2023-09-19T12:22:43;7.47;;;2.57;;
466;SDS011;72290;48.808;9.222;2023-09-19T12:25:10;2.87;;;1.57;;
466;SDS011;72290;48.808;9.222;2023-09-19T12:27:43;2.87;;;1.63;;
466;SDS011;72290;48.808;9.222;2023-09-19T12:30:11;3.20;;;1.60;;
466;SDS011;72290;48.808;9.222;2023-09-19T12:32:39;3.60;;;1.77;;
466;SDS011;72290;48.808;9.222;2023-09-19T12:35:06;4.50;;;2.00;;
466;SDS011;72290;48.808;9.222;2023-09-19T12:37:35;3.40;;;1.83;;
466;SDS011;72290;48.808;9.222;2023-09-19T12:40:05;4.03;;;1.70;;
466;SDS011;72290;48.808;9.222;2023-09-19T12:42:47;2.07;;;1.30;;
466;SDS011;72290;48.808;9.222;2023-09-19T12:45:13;5.00;;;1.77;;
466;SDS011;72290;48.808;9.222;2023-09-19T12:47:40;3.97;;;1.70;;
466;SDS011;72290;48.808;9.222;2023-09-19T12:50:12;12.03;;;2.50;;
466;SDS011;72290;48.808;9.222;2023-09-19T12:52:48;6.30;;;1.97;;
466;SDS011;72290;48.808;9.222;2023-09-19T12:58:11;4.37;;;1.70;;
466;SDS011;72290;48.808;9.222;2023-09-19T13:03:17;3.20;;;1.83;;
466;SDS011;72290;48.808;9.222;2023-09-19T13:05:54;3.53;;;1.80;;
466;SDS011;72290;48.808;9.222;2023-09-19T13:13:32;4.90;;;2.70;;
466;SDS011;72290;48.808;9.222;2023-09-19T13:15:58;3.07;;;2.10;;
466;SDS011;72290;48.808;9.222;2023-09-19T13:18:26;5.00;;;2.37;;
466;SDS011;72290;48.808;9.222;2023-09-19T13:21:05;7.60;;;1.90;;
466;SDS011;72290;48.808;9.222;2023-09-19T13:23:35;3.20;;;2.07;;
466;SDS011;72290;48.808;9.222;2023-09-19T13:26:02;4.10;;;2.10;;
466;SDS011;72290;48.808;9.222;2023-09-19T13:28:30;2.60;;;2.00;;
466;SDS011;72290;48.808;9.222;2023-09-19T13:30:56;4.37;;;1.83;;
466;SDS011;72290;48.808;9.222;2023-09-19T13:33:22;2.80;;;2.00;;
466;SDS011;72290;48.808;9.222;2023-09-19T13:35:48;5.70;;;3.53;;
466;SDS011;72290;48.808;9.222;2023-09-19T13:38:14;5.13;;;1.80;;
466;SDS011;72290;48.808;9.222;2023-09-19T13:40:40;4.67;;;2.30;;
466;SDS011;72290;48.808;9.222;2023-09-19T13:43:09;3.97;;;1.67;;
466;SDS011;72290;48.808;9.222;2023-09-19T13:45:36;3.10;;;2.03;;
466;SDS011;72290;48.808;9.222;2023-09-19T13:48:02;8.27;;;1.87;;
466;SDS011;72290;48.808;9.222;2023-09-19T13:50:28;3.03;;;1.80;;
466;SDS011;72290;48.808;9.222;2023-09-19T13:52:54;4.10;;;1.63;;
466;SDS011;72290;48.808;9.222;2023-09-19T13:55:20;3.40;;;1.70;;
466;SDS011;72290;48.808;9.222;2023-09-19T13:57:49;2.40;;;1.70;;
466;SDS011;72290;48.808;9.222;2023-09-19T14:00:17;4.47;;;1.90;;
466;SDS011;72290;48.808;9.222;2023-09-19T14:02:43;5.47;;;2.07;;
466;SDS011;72290;48.808;9.222;2023-09-19T14:05:10;5.50;;;2.03;;
466;SDS011;72290;48.808;9.222;2023-09-19T14:07:40;4.97;;;1.80;;
466;SDS011;72290;48.808;9.222;2023-09-19T14:10:06;5.03;;;2.20;;
466;SDS011;72290;48.808;9.222;2023-09-19T14:12:33;10.07;;;1.87;;
466;SDS011;72290;48.808;9.222;2023-09-19T14:14:59;4.90;;;1.80;;
466;SDS011;72290;48.808;9.222;2023-09-19T14:17:26;6.37;;;2.47;;
466;SDS011;72290;48.808;9.222;2023-09-19T14:19:53;3.53;;;1.70;;
466;SDS011;72290;48.808;9.222;2023-09-19T14:22:19;5.83;;;2.70;;
466;SDS011;72290;48.808;9.222;2023-09-19T14:24:44;4.07;;;1.80;;
466;SDS011;72290;48.808;9.222;2023-09-19T14:27:10;3.80;;;2.07;;
466;SDS011;72290;48.808;9.222;2023-09-19T14:29:36;4.23;;;1.90;;
466;SDS011;72290;48.808;9.222;2023-09-19T14:32:03;2.57;;;1.60;;
466;SDS011;72290;48.808;9.222;2023-09-19T14:34:29;2.77;;;1.90;;
466;SDS011;72290;48.808;9.222;2023-09-19T14:36:55;2.33;;;1.53;;
466;SDS011;72290;48.808;9.222;2023-09-19T14:39:21;3.40;;;2.07;;
466;SDS011;72290;48.808;9.222;2023-09-19T14:41:48;3.63;;;2.43;;
466;SDS011;72290;48.808;9.222;2023-09-19T14:44:14;4.23;;;2.37;;
466;SDS011;72290;48.808;9.222;2023-09-19T14:46:41;3.03;;;1.63;;
466;SDS011;72290;48.808;9.222;2023-09-19T14:49:09;8.30;;;1.80;;
466;SDS011;72290;48.808;9.222;2023-09-19T14:51:35;3.13;;;1.97;;
466;SDS011;72290;48.808;9.222;2023-09-19T14:54:02;3.30;;;1.70;;
466;SDS011;72290;48.808;9.222;2023-09-19T14:56:28;5.00;;;2.10;;
466;SDS011;72290;48.808;9.222;2023-09-19T14:58:55;2.53;;;1.77;;
466;SDS011;72290;48.808;9.222;2023-09-19T15:01:21;2.23;;;1.87;;
466;SDS011;72290;48.808;9.222;2023-09-19T15:03:47;5.80;;;2.30;;
466;SDS011;72290;48.808;9.222;2023-09-19T15:06:14;3.93;;;2.83;;
466;SDS011;72290;48.808;9.222;2023-09-19T15:08:43;6.60;;;2.47;;
466;SDS011;72290;48.808;9.222;2023-09-19T15:11:12;3.63;;;2.00;;
466;SDS011;72290;48.808;9.222;2023-09-19T15:13:38;2.90;;;2.10;;
466;SDS011;72290;48.808;9.222;2023-09-19T15:16:05;2.67;;;1.73;;
466;SDS011;72290;48.808;9.222;2023-09-19T15:18:35;5.10;;;2.07;;
466;SDS011;72290;48.808;9.222;2023-09-19T15:21:05;3.10;;;1.50;;
466;SDS011;72290;48.808;9.222;2023-09-19T15:23:32;3.40;;;1.50;;
466;SDS011;72290;48.808;9.222;2023-09-19T15:26:09;6.27;;;2.37;;
466;SDS011;72290;48.808;9.222;2023-09-19T15:28:38;4.03;;;2.30;;
466;SDS011;72290;48.808;9.222;2023-09-19T15:31:05;2.93;;;1.73;;
466;SDS011;72290;48.808;9.222;2023-09-19T15:33:32;1.70;;;1.40;;
466;SDS011;72290;48.808;9.222;2023-09-19T15:38:30;3.67;;;2.20;;
466;SDS011;72290;48.808;9.222;2023-09-19T15:40:57;5.60;;;1.83;;
466;SDS011;72290;48.808;9.222;2023-09-19T15:43:24;6.37;;;2.10;;
466;SDS011;72290;48.808;9.222;2023-09-19T15:45:50;2.07;;;1.30;;
466;SDS011;72290;48.808;9.222;2023-09-19T15:48:16;3.60;;;1.77;;
466;SDS011;72290;48.808;9.222;2023-09-19T15:50:43;2.33;;;1.37;;
466;SDS011;72290;48.808;9.222;2023-09-19T15:53:10;2.13;;;1.60;;
466;SDS011;72290;48.808;9.222;2023-09-19T15:55:39;3.30;;;1.77;;
466;SDS011;72290;48.808;9.222;2023-09-19T15:58:05;2.20;;;1.57;;
466;SDS011;72290;48.808;9.222;2023-09-19T16:00:31;3.43;;;1.60;;
466;SDS011;72290;48.808;9.222;2023-09-19T16:03:01;3.93;;;1.77;;
466;SDS011;72290;48.808;9.222;2023-09-19T16:05:27;3.47;;;2.00;;
466;SDS011;72290;48.808;9.222;2023-09-19T16:07:53;3.20;;;1.70;;
466;SDS011;72290;48.808;9.222;2023-09-19T16:10:19;3.73;;;1.73;;
466;SDS011;72290;48.808;9.222;2023-09-19T16:12:46;5.27;;;2.33;;
466;SDS011;72290;48.808;9.222;2023-09-19T16:15:12;4.60;;;2.10;;
466;SDS011;72290;48.808;9.222;2023-09-19T16:17:40;8.10;;;2.70;;
466;SDS011;72290;48.808;9.222;2023-09-19T16:20:06;4.20;;;2.17;;
466;SDS011;72290;48.808;9.222;2023-09-19T16:22:37;4.03;;;1.90;;
466;SDS011;72290;48.808;9.222;2023-09-19T16:25:03;2.40;;;1.60;;
466;SDS011;72290;48.808;9.222;2023-09-19T16:27:29;2.70;;;1.70;;
466;SDS011;72290;48.808;9.222;2023-09-19T16:29:55;5.30;;;1.93;;
466;SDS011;72290;48.808;9.222;2023-09-19T16:32:21;1.77;;;1.33;;
466;SDS011;72290;48.808;9.222;2023-09-19T16:34:47;2.70;;;1.70;;
466;SDS011;72290;48.808;9.222;2023-09-19T16:37:13;4.40;;;2.40;;
466;SDS011;72290;48.808;9.222;2023-09-19T16:39:42;5.80;;;2.67;;
466;SDS011;72290;48.808;9.222;2023-09-19T16:42:08;4.33;;;2.40;;
466;SDS011;72290;48.808;9.222;2023-09-19T16:44:36;5.43;;;2.80;;
466;SDS011;72290;48.808;9.222;2023-09-19T16:47:02;5.10;;;2.70;;
466;SDS011;72290;48.808;9.222;2023-09-19T16:49:29;5.90;;;2.40;;
466;SDS011;72290;48.808;9.222;2023-09-19T16:51:55;3.00;;;1.87;;
466;SDS011;72290;48.808;9.222;2023-09-19T16:54:21;6.73;;;2.53;;
466;SDS011;72290;48.808;9.222;2023-09-19T16:56:48;4.40;;;2.47;;
466;SDS011;72290;48.808;9.222;2023-09-19T16:59:14;2.80;;;2.00;;
466;SDS011;72290;48.808;9.222;2023-09-19T17:01:40;4.37;;;2.20;;
466;SDS011;72290;48.808;9.222;2023-09-19T17:04:07;6.70;;;2.70;;
466;SDS011;72290;48.808;9.222;2023-09-19T17:06:33;6.20;;;3.03;;
466;SDS011;72290;48.808;9.222;2023-09-19T17:08:59;3.83;;;2.90;;
466;SDS011;72290;48.808;9.222;2023-09-19T17:11:25;14.37;;;3.10;;
466;SDS011;72290;48.808;9.222;2023-09-19T17:13:51;6.23;;;3.10;;
466;SDS011;72290;48.808;9.222;2023-09-19T17:16:22;6.00;;;3.50;;
466;SDS011;72290;48.808;9.222;2023-09-19T17:18:54;4.80;;;2.60;;
466;SDS011;72290;48.808;9.222;2023-09-19T17:21:21;5.07;;;2.60;;
466;SDS011;72290;48.808;9.222;2023-09-19T17:23:47;4.03;;;2.80;;
466;SDS011;72290;48.808;9.222;2023-09-19T17:26:13;2.63;;;2.10;;
466;SDS011;72290;48.808;9.222;2023-09-19T17:28:41;4.07;;;2.37;;
466;SDS011;72290;48.808;9.222;2023-09-19T17:31:08;8.27;;;4.03;;
466;SDS011;72290;48.808;9.222;2023-09-19T17:33:36;7.43;;;2.67;;
466;SDS011;72290;48.808;9.222;2023-09-19T17:36:05;6.30;;;3.20;;
466;SDS011;72290;48.808;9.222;2023-09-19T17:38:32;4.33;;;2.57;;
466;SDS011;72290;48.808;9.222;2023-09-19T17:41:01;4.63;;;2.40;;
466;SDS011;72290;48.808;9.222;2023-09-19T17:43:28;15.13;;;3.23;;
466;SDS011;72290;48.808;9.222;2023-09-19T17:45:54;4.27;;;2.50;;
466;SDS011;72290;48.808;9.222;2023-09-19T17:48:20;4.97;;;2.50;;
466;SDS011;72290;48.808;9.222;2023-09-19T17:50:46;4.40;;;3.03;;
466;SDS011;72290;48.808;9.222;2023-09-19T17:53:12;4.27;;;2.70;;
466;SDS011;72290;48.808;9.222;2023-09-19T17:55:38;7.83;;;2.97;;
466;SDS011;72290;48.808;9.222;2023-09-19T17:58:04;4.10;;;2.80;;
466;SDS011;72290;48.808;9.222;2023-09-19T18:00:31;7.83;;;4.07;;
466;SDS011;72290;48.808;9.222;2023-09-19T18:03:01;8.70;;;3.33;;
466;SDS011;72290;48.808;9.222;2023-09-19T18:05:28;3.53;;;2.40;;
466;SDS011;72290;48.808;9.222;2023-09-19T18:07:55;5.80;;;3.23;;
466;SDS011;72290;48.808;9.222;2023-09-19T18:10:21;4.67;;;2.30;;
466;SDS011;72290;48.808;9.222;2023-09-19T18:12:47;7.93;;;3.10;;
466;SDS011;72290;48.808;9.222;2023-09-19T18:15:13;5.90;;;2.60;;
466;SDS011;72290;48.808;9.222;2023-09-19T18:17:39;7.70;;;2.90;;
466;SDS011;72290;48.808;9.222;2023-09-19T18:20:05;4.70;;;2.87;;
466;SDS011;72290;48.808;9.222;2023-09-19T18:22:34;5.90;;;2.60;;
466;SDS011;72290;48.808;9.222;2023-09-19T18:25:00;5.50;;;2.90;;
466;SDS011;72290;48.808;9.222;2023-09-19T18:27:27;4.30;;;2.40;;
466;SDS011;72290;48.808;9.222;2023-09-19T18:29:55;5.70;;;2.70;;
466;SDS011;72290;48.808;9.222;2023-09-19T18:32:21;4.90;;;3.30;;
466;SDS011;72290;48.808;9.222;2023-09-19T18:34:48;7.93;;;3.60;;
466;SDS011;72290;48.808;9.222;2023-09-19T18:37:14;7.80;;;3.67;;
466;SDS011;72290;48.808;9.222;2023-09-19T18:39:40;6.63;;;3.83;;
466;SDS011;72290;48.808;9.222;2023-09-19T18:42:06;10.60;;;5.43;;
466;SDS011;72290;48.808;9.222;2023-09-19T18:44:33;8.50;;;4.83;;
466;SDS011;72290;48.808;9.222;2023-09-19T18:46:59;9.27;;;4.90;;
466;SDS011;72290;48.808;9.222;2023-09-19T18:49:27;9.57;;;5.20;;
466;SDS011;72290;48.808;9.222;2023-09-19T18:51:53;8.17;;;5.27;;
466;SDS011;72290;48.808;9.222;2023-09-19T18:54:19;7.67;;;4.57;;
466;SDS011;72290;48.808;9.222;2023-09-19T18:56:45;6.10;;;3.90;;
466;SDS011;72290;48.808;9.222;2023-09-19T18:59:11;9.77;;;4.37;;
466;SDS011;72290;48.808;9.222;2023-09-19T19:01:38;8.07;;;4.43;;
466;SDS011;72290;48.808;9.222;2023-09-19T19:04:04;12.97;;;5.37;;
466;SDS011;72290;48.808;9.222;2023-09-19T19:06:30;15.50;;;5.50;;
466;SDS011;72290;48.808;9.222;2023-09-19T19:08:57;9.17;;;5.17;;
466;SDS011;72290;48.808;9.222;2023-09-19T19:11:24;8.43;;;4.33;;
466;SDS011;72290;48.808;9.222;2023-09-19T19:13:54;10.20;;;4.40;;
466;SDS011;72290;48.808;9.222;2023-09-19T19:16:20;10.10;;;5.23;;
466;SDS011;72290;48.808;9.222;2023-09-19T19:18:46;5.60;;;3.67;;
466;SDS011;72290;48.808;9.222;2023-09-19T19:21:14;5.83;;;3.40;;
466;SDS011;72290;48.808;9.222;2023-09-19T19:23:41;6.10;;;3.37;;
466;SDS011;72290;48.808;9.222;2023-09-19T19:26:07;7.40;;;3.70;;
466;SDS011;72290;48.808;9.222;2023-09-19T19:28:34;7.50;;;4.50;;
466;SDS011;72290;48.808;9.222;2023-09-19T19:31:01;6.77;;;3.57;;
466;SDS011;72290;48.808;9.222;2023-09-19T19:33:28;6.30;;;3.87;;
466;SDS011;72290;48.808;9.222;2023-09-19T19:36:04;7.17;;;4.03;;
466;SDS011;72290;48.808;9.222;2023-09-19T19:38:31;8.23;;;3.43;;
466;SDS011;72290;48.808;9.222;2023-09-19T19:41:06;6.20;;;3.70;;
466;SDS011;72290;48.808;9.222;2023-09-19T19:43:32;10.17;;;4.67;;
466;SDS011;72290;48.808;9.222;2023-09-19T19:46:00;13.30;;;3.83;;
466;SDS011;72290;48.808;9.222;2023-09-19T19:48:26;8.53;;;4.07;;
466;SDS011;72290;48.808;9.222;2023-09-19T19:50:54;10.23;;;4.63;;
466;SDS011;72290;48.808;9.222;2023-09-19T19:53:20;7.20;;;4.07;;
466;SDS011;72290;48.808;9.222;2023-09-19T19:55:48;10.93;;;4.40;;
466;SDS011;72290;48.808;9.222;2023-09-19T19:58:14;6.50;;;4.27;;
466;SDS011;72290;48.808;9.222;2023-09-19T20:00:41;7.57;;;3.85;;
466;SDS011;72290;48.808;9.222;2023-09-19T20:03:08;7.93;;;4.07;;
466;SDS011;72290;48.808;9.222;2023-09-19T20:05:38;9.90;;;4.90;;
466;SDS011;72290;48.808;9.222;2023-09-19T20:08:05;8.13;;;4.80;;
466;SDS011;72290;48.808;9.222;2023-09-19T20:10:32;9.10;;;4.63;;
466;SDS011;72290;48.808;9.222;2023-09-19T20:13:02;8.57;;;4.90;;
466;SDS011;72290;48.808;9.222;2023-09-19T20:15:31;12.40;;;6.13;;
466;SDS011;72290;48.808;9.222;2023-09-19T20:17:58;14.73;;;6.90;;
466;SDS011;72290;48.808;9.222;2023-09-19T20:20:25;8.70;;;5.30;;
466;SDS011;72290;48.808;9.222;2023-09-19T20:22:52;11.47;;;6.87;;
466;SDS011;72290;48.808;9.222;2023-09-19T20:25:18;9.43;;;5.40;;
466;SDS011;72290;48.808;9.222;2023-09-19T20:27:46;10.03;;;5.30;;
466;SDS011;72290;48.808;9.222;2023-09-19T20:30:13;8.50;;;4.37;;
466;SDS011;72290;48.808;9.222;2023-09-19T20:32:40;6.90;;;4.70;;
466;SDS011;72290;48.808;9.222;2023-09-19T20:35:07;11.10;;;5.33;;
466;SDS011;72290;48.808;9.222;2023-09-19T20:37:33;9.90;;;4.50;;
466;SDS011;72290;48.808;9.222;2023-09-19T20:40:02;5.37;;;3.30;;
466;SDS011;72290;48.808;9.222;2023-09-19T20:42:28;7.10;;;4.23;;
466;SDS011;72290;48.808;9.222;2023-09-19T20:44:54;8.73;;;3.90;;
466;SDS011;72290;48.808;9.222;2023-09-19T20:47:22;11.23;;;4.67;;
466;SDS011;72290;48.808;9.222;2023-09-19T20:49:48;6.83;;;4.00;;
466;SDS011;72290;48.808;9.222;2023-09-19T20:52:14;6.60;;;3.43;;
466;SDS011;72290;48.808;9.222;2023-09-19T20:54:41;6.90;;;3.90;;
466;SDS011;72290;48.808;9.222;2023-09-19T20:57:12;8.53;;;4.77;;
466;SDS011;72290;48.808;9.222;2023-09-19T20:59:39;8.03;;;4.00;;
466;SDS011;72290;48.808;9.222;2023-09-19T21:02:05;8.47;;;4.17;;
466;SDS011;72290;48.808;9.222;2023-09-19T21:04:31;9.80;;;5.10;;
466;SDS011;72290;48.808;9.222;2023-09-19T21:06:57;9.70;;;4.47;;
466;SDS011;72290;48.808;9.222;2023-09-19T21:09:24;8.63;;;4.30;;
466;SDS011;72290;48.808;9.222;2023-09-19T21:11:50;7.40;;;4.23;;
466;SDS011;72290;48.808;9.222;2023-09-19T21:14:16;9.13;;;4.93;;
466;SDS011;72290;48.808;9.222;2023-09-19T21:16:42;11.83;;;4.90;;
466;SDS011;72290;48.808;9.222;2023-09-19T21:19:08;5.70;;;3.80;;
466;SDS011;72290;48.808;9.222;2023-09-19T21:21:35;7.93;;;3.83;;
466;SDS011;72290;48.808;9.222;2023-09-19T21:24:01;9.13;;;4.07;;
466;SDS011;72290;48.808;9.222;2023-09-19T21:26:27;13.87;;;4.10;;
466;SDS011;72290;48.808;9.222;2023-09-19T21:28:53;9.20;;;3.50;;
466;SDS011;72290;48.808;9.222;2023-09-19T21:31:20;8.63;;;4.30;;
466;SDS011;72290;48.808;9.222;2023-09-19T21:33:47;8.60;;;3.57;;
466;SDS011;72290;48.808;9.222;2023-09-19T21:36:14;16.10;;;3.43;;
466;SDS011;72290;48.808;9.222;2023-09-19T21:38:48;5.57;;;3.50;;
466;SDS011;72290;48.808;9.222;2023-09-19T21:41:19;7.97;;;4.10;;
466;SDS011;72290;48.808;9.222;2023-09-19T21:43:46;7.37;;;3.60;;
466;SDS011;72290;48.808;9.222;2023-09-19T21:46:18;7.70;;;4.00;;
466;SDS011;72290;48.808;9.222;2023-09-19T21:48:44;6.50;;;3.60;;
466;SDS011;72290;48.808;9.222;2023-09-19T21:51:13;9.60;;;4.20;;
466;SDS011;72290;48.808;9.222;2023-09-19T21:53:40;7.97;;;4.00;;
466;SDS011;72290;48.808;9.222;2023-09-19T21:56:06;14.60;;;4.20;;
466;SDS011;72290;48.808;9.222;2023-09-19T22:01:00;6.97;;;3.73;;
466;SDS011;72290;48.808;9.222;2023-09-19T22:03:28;6.10;;;3.37;;
466;SDS011;72290;48.808;9.222;2023-09-19T22:06:05;6.33;;;3.97;;
466;SDS011;72290;48.808;9.222;2023-09-19T22:08:31;9.10;;;3.40;;